createdAt,value
2023-04-08T00:02:21.403Z,35.33
2023-04-08T00:04:49.093Z,36.17
2023-04-08T00:07:17.660Z,38.75
2023-04-08T00:09:45.463Z,35.10
2023-04-08T00:12:13.002Z,29.77
2023-04-08T00:14:41.715Z,32.55
2023-04-08T00:17:09.344Z,33.25
2023-04-08T00:19:36.927Z,33.13
2023-04-08T00:22:04.789Z,29.00
2023-04-08T00:24:32.480Z,32.10
2023-04-08T00:26:59.765Z,31.92
2023-04-08T00:29:27.297Z,36.55
2023-04-08T00:31:54.741Z,34.00
2023-04-08T00:34:22.260Z,33.47
2023-04-08T00:36:49.542Z,28.70
2023-04-08T00:39:17.169Z,30.65
2023-04-08T00:41:44.550Z,29.60
2023-04-08T00:44:12.119Z,28.95
2023-04-08T00:46:40.782Z,27.27
2023-04-08T00:49:08.610Z,24.65
2023-04-08T00:51:38.828Z,28.58
2023-04-08T00:54:07.488Z,25.60
2023-04-08T00:56:35.986Z,27.13
2023-04-08T00:59:05.206Z,27.33
2023-04-08T01:01:46.015Z,29.63
2023-04-08T01:04:51.517Z,23.38
2023-04-08T01:07:27.069Z,22.17
2023-04-08T01:10:06.144Z,21.00
2023-04-08T01:12:40.826Z,24.77
2023-04-08T01:15:11.999Z,26.33
2023-04-08T01:17:41.806Z,25.38
2023-04-08T01:20:11.568Z,24.73
2023-04-08T01:22:45.097Z,24.08
2023-04-08T01:25:24.303Z,23.15
2023-04-08T01:27:56.972Z,22.65
2023-04-08T01:30:26.402Z,23.10
2023-04-08T01:32:56.142Z,23.98
2023-04-08T01:35:24.824Z,25.92
2023-04-08T01:37:54.059Z,24.25
2023-04-08T01:40:21.984Z,22.27
2023-04-08T01:42:52.064Z,19.42
2023-04-08T01:45:22.082Z,20.42
2023-04-08T01:47:50.746Z,24.95
2023-04-08T01:50:21.403Z,19.05
2023-04-08T01:52:53.799Z,22.88
2023-04-08T01:55:22.460Z,25.48
2023-04-08T01:57:53.522Z,24.13
2023-04-08T02:00:31.617Z,23.27
2023-04-08T02:03:00.948Z,26.15
2023-04-08T02:05:29.022Z,26.20
2023-04-08T02:07:56.276Z,26.85
2023-04-08T02:10:23.973Z,29.55
2023-04-08T02:12:51.288Z,28.48
2023-04-08T02:15:19.065Z,31.20
2023-04-08T02:17:56.132Z,27.25
2023-04-08T02:20:34.954Z,29.90
2023-04-08T02:23:03.186Z,28.58
2023-04-08T02:25:34.763Z,28.23
2023-04-08T02:28:06.857Z,26.52
2023-04-08T02:30:39.784Z,27.23
2023-04-08T02:33:09.388Z,25.98
2023-04-08T02:35:40.722Z,25.88
2023-04-08T02:38:09.847Z,25.95
2023-04-08T02:40:38.144Z,26.70
2023-04-08T02:43:05.583Z,32.03
2023-04-08T02:45:39.243Z,28.27
2023-04-08T02:48:07.324Z,26.77
2023-04-08T02:50:34.798Z,27.45
2023-04-08T02:53:02.594Z,27.30
2023-04-08T02:55:29.833Z,28.55
2023-04-08T02:57:57.363Z,25.73
2023-04-08T03:00:24.706Z,29.73
2023-04-08T03:02:52.490Z,26.52
2023-04-08T03:05:19.989Z,27.38
2023-04-08T03:07:47.538Z,29.35
2023-04-08T03:10:16.854Z,26.15
2023-04-08T03:12:44.450Z,27.20
2023-04-08T03:15:11.775Z,28.92
2023-04-08T03:17:39.283Z,27.02
2023-04-08T03:20:07.819Z,25.67
2023-04-08T03:22:36.632Z,26.42
2023-04-08T03:25:04.520Z,26.35
2023-04-08T03:27:32.159Z,25.38
2023-04-08T03:29:59.487Z,29.45
2023-04-08T03:32:27.368Z,25.80
2023-04-08T03:34:54.685Z,29.80
2023-04-08T03:37:22.252Z,28.00
2023-04-08T03:39:49.497Z,27.83
2023-04-08T03:42:17.211Z,29.10
2023-04-08T03:44:44.519Z,31.27
2023-04-08T03:47:12.095Z,29.02
2023-04-08T03:49:39.378Z,26.08
2023-04-08T03:52:07.406Z,26.80
2023-04-08T03:54:34.736Z,27.83
2023-04-08T03:57:02.307Z,27.58
2023-04-08T03:59:29.810Z,27.60
2023-04-08T04:01:57.421Z,27.08
2023-04-08T04:04:25.111Z,27.20
2023-04-08T04:06:52.762Z,28.20
2023-04-08T04:09:20.037Z,26.63
2023-04-08T04:11:47.545Z,28.20
2023-04-08T04:14:15.046Z,27.38
2023-04-08T04:16:42.587Z,27.85
2023-04-08T04:19:09.951Z,31.63
2023-04-08T04:21:37.523Z,27.90
2023-04-08T04:24:05.373Z,30.23
2023-04-08T04:26:33.243Z,29.48
2023-04-08T04:29:00.577Z,30.55
2023-04-08T04:31:28.390Z,30.20
2023-04-08T04:33:55.785Z,28.52
2023-04-08T04:36:23.390Z,29.38
2023-04-08T04:38:51.760Z,28.75
2023-04-08T04:41:19.723Z,28.25
2023-04-08T04:43:46.984Z,26.25
2023-04-08T04:46:14.687Z,27.77
2023-04-08T04:48:41.990Z,29.25
2023-04-08T04:51:09.577Z,30.42
2023-04-08T04:53:36.912Z,29.90
2023-04-08T04:56:04.774Z,27.02
2023-04-08T04:58:32.087Z,29.80
2023-04-08T05:00:59.641Z,24.90
2023-04-08T05:03:27.139Z,27.77
2023-04-08T05:05:55.584Z,25.58
2023-04-08T05:08:22.866Z,24.08
2023-04-08T05:10:50.999Z,23.17
2023-04-08T05:13:19.149Z,22.58
2023-04-08T05:15:46.997Z,23.10
2023-04-08T05:18:14.384Z,25.02
2023-04-08T05:20:42.006Z,26.38
2023-04-08T05:23:09.312Z,23.52
2023-04-08T05:25:37.025Z,23.00
2023-04-08T05:28:04.885Z,23.95
2023-04-08T05:30:32.504Z,23.73
2023-04-08T05:33:00.799Z,27.25
2023-04-08T05:35:29.326Z,25.02
2023-04-08T05:37:56.647Z,24.60
2023-04-08T05:40:24.396Z,24.67
2023-04-08T05:42:51.705Z,28.50
2023-04-08T05:45:19.456Z,27.38
2023-04-08T05:47:46.743Z,27.20
2023-04-08T05:50:14.441Z,25.30
2023-04-08T05:52:45.617Z,25.38
2023-04-08T05:55:14.949Z,26.15
2023-04-08T05:57:42.484Z,31.00
2023-04-08T06:00:11.516Z,25.00
2023-04-08T06:02:39.255Z,25.55
2023-04-08T06:05:07.700Z,25.95
2023-04-08T06:07:35.169Z,25.73
2023-04-08T06:10:03.310Z,25.42
2023-04-08T06:12:30.753Z,25.35
2023-04-08T06:14:58.312Z,24.10
2023-04-08T06:17:25.765Z,23.10
2023-04-08T06:19:53.495Z,24.17
2023-04-08T06:22:20.992Z,24.83
2023-04-08T06:24:48.870Z,24.85
2023-04-08T06:27:16.575Z,28.38
2023-04-08T06:29:44.176Z,27.10
2023-04-08T06:32:11.641Z,22.23
2023-04-08T06:34:39.518Z,25.90
2023-04-08T06:37:07.096Z,21.38
2023-04-08T06:39:34.751Z,23.10
2023-04-08T06:42:02.285Z,24.42
2023-04-08T06:44:30.030Z,23.15
2023-04-08T06:46:57.373Z,21.50
2023-04-08T06:49:25.088Z,20.65
2023-04-08T06:51:52.318Z,21.65
2023-04-08T06:54:19.846Z,20.02
2023-04-08T06:56:47.537Z,22.85
2023-04-08T06:59:15.611Z,21.63
2023-04-08T07:01:42.988Z,20.67
2023-04-08T07:04:10.648Z,20.02
2023-04-08T07:06:37.928Z,19.00
2023-04-08T07:09:05.622Z,22.20
2023-04-08T07:11:33.017Z,22.35
2023-04-08T07:14:00.619Z,18.38
2023-04-08T07:16:27.845Z,20.02
2023-04-08T07:18:55.757Z,18.52
2023-04-08T07:21:23.066Z,19.33
2023-04-08T07:23:50.776Z,16.95
2023-04-08T07:26:18.043Z,17.35
2023-04-08T07:28:45.609Z,17.80
2023-04-08T07:31:18.994Z,16.88
2023-04-08T07:33:47.035Z,14.05
2023-04-08T07:36:15.504Z,12.80
2023-04-08T07:38:43.074Z,11.95
2023-04-08T07:41:10.367Z,12.80
2023-04-08T07:43:37.987Z,12.10
2023-04-08T07:46:06.696Z,11.40
2023-04-08T07:48:35.862Z,14.82
2023-04-08T07:51:11.379Z,16.58
2023-04-08T07:53:40.623Z,13.00
2023-04-08T07:56:13.785Z,14.50
2023-04-08T07:58:41.992Z,15.50
2023-04-08T08:01:23.726Z,17.15
2023-04-08T08:03:53.499Z,14.25
2023-04-08T08:06:22.238Z,13.30
2023-04-08T08:08:49.959Z,14.45
2023-04-08T08:11:17.442Z,13.68
2023-04-08T08:13:45.144Z,12.25
2023-04-08T08:16:12.747Z,13.63
2023-04-08T08:18:41.520Z,13.63
2023-04-08T08:21:09.725Z,11.45
2023-04-08T08:23:37.910Z,11.55
2023-04-08T08:26:10.640Z,10.63
2023-04-08T08:28:39.633Z,8.88
2023-04-08T08:31:07.265Z,9.98
2023-04-08T08:33:35.672Z,9.27
2023-04-08T08:36:05.348Z,8.50
2023-04-08T08:38:33.462Z,8.30
2023-04-08T08:41:02.122Z,9.57
2023-04-08T08:43:33.417Z,8.35
2023-04-08T08:46:01.023Z,8.10
2023-04-08T08:48:28.707Z,10.10
2023-04-08T08:50:56.474Z,9.18
2023-04-08T08:53:33.401Z,8.63
2023-04-08T08:56:16.509Z,7.95
2023-04-08T08:58:45.216Z,7.50
2023-04-08T09:01:33.182Z,7.90
2023-04-08T09:04:20.537Z,8.43
2023-04-08T09:07:10.081Z,8.10
2023-04-08T09:09:51.685Z,8.30
2023-04-08T09:12:19.619Z,7.15
2023-04-08T09:14:47.750Z,5.70
2023-04-08T09:17:16.470Z,5.25
2023-04-08T09:20:12.065Z,6.28
2023-04-08T09:22:59.307Z,5.18
2023-04-08T09:25:30.922Z,6.45
2023-04-08T09:27:59.356Z,4.85
2023-04-08T09:30:28.383Z,4.57
2023-04-08T09:32:58.249Z,4.75
2023-04-08T09:35:26.217Z,4.72
2023-04-08T09:37:53.727Z,4.93
2023-04-08T09:40:25.035Z,5.35
2023-04-08T09:42:56.310Z,5.88
2023-04-08T09:45:28.171Z,5.47
2023-04-08T09:48:01.638Z,7.85
2023-04-08T09:50:36.048Z,8.25
2023-04-08T09:53:27.715Z,8.75
2023-04-08T09:55:58.602Z,7.10
2023-04-08T09:58:38.364Z,7.55
2023-04-08T10:01:08.311Z,7.15
2023-04-08T10:03:55.610Z,8.07
2023-04-08T10:06:29.651Z,9.15
2023-04-08T10:08:58.248Z,8.07
2023-04-08T10:11:26.372Z,8.43
2023-04-08T10:13:54.113Z,7.57
2023-04-08T10:16:27.705Z,8.73
2023-04-08T10:18:56.373Z,8.80
2023-04-08T10:21:50.252Z,9.30
2023-04-08T10:24:19.093Z,8.60
2023-04-08T10:26:48.925Z,10.18
2023-04-08T10:29:19.228Z,9.38
2023-04-08T10:31:48.573Z,9.02
2023-04-08T10:34:25.705Z,8.75
2023-04-08T10:36:56.852Z,8.88
2023-04-08T10:39:27.303Z,7.88
2023-04-08T10:41:56.014Z,7.55
2023-04-08T10:44:26.968Z,8.02
2023-04-08T10:46:55.058Z,8.57
2023-04-08T10:49:22.685Z,8.38
2023-04-08T10:51:50.304Z,8.10
2023-04-08T10:54:19.193Z,8.43
2023-04-08T10:56:52.509Z,8.43
2023-04-08T10:59:33.036Z,8.45
2023-04-08T11:02:01.610Z,8.23
2023-04-08T11:04:29.374Z,9.05
2023-04-08T11:06:58.364Z,9.05
2023-04-08T11:09:25.793Z,11.38
2023-04-08T11:11:53.988Z,8.88
2023-04-08T11:14:22.530Z,8.20
2023-04-08T11:16:50.373Z,8.02
2023-04-08T11:19:18.704Z,9.18
2023-04-08T11:21:46.905Z,8.65
2023-04-08T11:24:14.538Z,10.77
2023-04-08T11:26:43.296Z,10.80
2023-04-08T11:29:14.471Z,11.70
2023-04-08T11:31:44.304Z,11.13
2023-04-08T11:34:12.274Z,10.90
2023-04-08T11:36:41.822Z,12.10
2023-04-08T11:39:12.520Z,11.43
2023-04-08T11:41:43.323Z,11.68
2023-04-08T11:44:10.755Z,15.60
2023-04-08T11:46:40.323Z,12.30
2023-04-08T11:49:10.124Z,12.27
2023-04-08T11:51:59.392Z,12.48
2023-04-08T11:54:32.315Z,11.43
2023-04-08T11:57:01.209Z,13.02
2023-04-08T11:59:29.840Z,13.20
2023-04-08T12:01:59.276Z,13.23
2023-04-08T12:04:26.862Z,12.57
2023-04-08T12:06:55.380Z,13.02
2023-04-08T12:09:24.122Z,11.93
2023-04-08T12:11:51.744Z,11.50
2023-04-08T12:14:19.037Z,14.15
2023-04-08T12:16:46.758Z,12.02
2023-04-08T12:19:14.027Z,11.90
2023-04-08T12:21:41.814Z,14.82
2023-04-08T12:24:09.063Z,14.48
2023-04-08T12:26:36.648Z,17.77
2023-04-08T12:29:03.998Z,16.70
2023-04-08T12:31:31.995Z,14.73
2023-04-08T12:33:59.424Z,15.48
2023-04-08T12:36:27.426Z,14.43
2023-04-08T12:38:54.672Z,13.48
2023-04-08T12:41:22.235Z,14.77
2023-04-08T12:43:49.514Z,13.98
2023-04-08T12:46:17.055Z,13.20
2023-04-08T12:48:45.240Z,15.18
2023-04-08T12:51:12.815Z,15.90
2023-04-08T12:53:40.072Z,13.63
2023-04-08T12:56:07.731Z,13.80
2023-04-08T12:58:35.060Z,14.07
2023-04-08T13:01:02.624Z,14.98
2023-04-08T13:03:32.023Z,15.82
2023-04-08T13:05:59.589Z,13.55
2023-04-08T13:08:26.891Z,16.73
2023-04-08T13:10:57.526Z,15.60
2023-04-08T13:13:24.864Z,14.38
2023-04-08T13:15:53.025Z,17.48
2023-04-08T13:18:20.474Z,19.25
2023-04-08T13:20:48.097Z,20.30
2023-04-08T13:23:17.950Z,19.73
2023-04-08T13:25:48.502Z,20.05
2023-04-08T13:28:16.032Z,19.00
2023-04-08T13:30:43.676Z,19.52
2023-04-08T13:33:11.278Z,20.67
2023-04-08T13:35:38.903Z,18.52
2023-04-08T13:38:06.165Z,18.13
2023-04-08T13:40:33.740Z,18.25
2023-04-08T13:43:01.745Z,17.38
2023-04-08T13:45:29.418Z,20.10
2023-04-08T13:47:56.910Z,18.00
2023-04-08T13:50:24.742Z,20.83
2023-04-08T13:52:52.003Z,26.52
2023-04-08T13:55:19.555Z,25.85
2023-04-08T13:57:46.795Z,28.15
2023-04-08T14:00:14.853Z,26.55
2023-04-08T14:02:42.220Z,23.63
2023-04-08T14:05:10.083Z,22.42
2023-04-08T14:07:37.355Z,23.38
2023-04-08T14:10:05.873Z,26.13
2023-04-08T14:12:33.146Z,23.75
2023-04-08T14:15:00.813Z,22.73
2023-04-08T14:17:28.237Z,20.35
2023-04-08T14:19:55.984Z,20.02
2023-04-08T14:22:23.308Z,20.10
2023-04-08T14:24:50.898Z,20.10
2023-04-08T14:27:18.427Z,23.20
2023-04-08T14:29:45.930Z,24.08
2023-04-08T14:32:13.323Z,27.33
2023-04-08T14:34:40.844Z,24.90
2023-04-08T14:37:08.154Z,27.80
2023-04-08T14:39:36.119Z,27.60
2023-04-08T14:42:03.524Z,25.23
2023-04-08T14:44:31.187Z,29.40
2023-04-08T14:46:58.450Z,24.63
2023-04-08T14:49:26.054Z,23.73
2023-04-08T14:51:53.591Z,23.88
2023-04-08T14:54:21.470Z,25.13
2023-04-08T14:56:48.719Z,26.63
2023-04-08T14:59:16.292Z,21.02
2023-04-08T15:01:45.106Z,21.52
2023-04-08T15:04:12.788Z,22.60
2023-04-08T15:06:40.588Z,22.77
2023-04-08T15:09:08.222Z,21.70
2023-04-08T15:11:36.234Z,24.42
2023-04-08T15:14:03.746Z,20.75
2023-04-08T15:16:31.254Z,20.50
2023-04-08T15:19:00.525Z,24.92
2023-04-08T15:21:27.888Z,20.67
2023-04-08T15:23:55.464Z,22.27
2023-04-08T15:26:22.881Z,22.33
2023-04-08T15:28:52.400Z,21.83
2023-04-08T15:31:19.964Z,24.70
2023-04-08T15:33:48.837Z,19.70
2023-04-08T15:36:19.963Z,21.30
2023-04-08T15:38:48.492Z,22.70
2023-04-08T15:41:21.456Z,24.98
2023-04-08T15:43:50.300Z,24.85
2023-04-08T15:46:19.723Z,23.08
2023-04-08T15:48:48.626Z,22.50
2023-04-08T15:51:16.675Z,26.27
2023-04-08T15:53:44.371Z,23.58
2023-04-08T15:56:16.366Z,24.08
2023-04-08T15:58:47.353Z,22.13
2023-04-08T16:01:15.408Z,22.88
2023-04-08T16:03:43.608Z,22.77
2023-04-08T16:06:11.255Z,22.40
2023-04-08T16:08:39.900Z,27.52
2023-04-08T16:11:08.185Z,28.08
2023-04-08T16:13:35.826Z,25.50
2023-04-08T16:16:03.993Z,26.50
2023-04-08T16:18:31.804Z,27.48
2023-04-08T16:20:59.133Z,28.45
2023-04-08T16:23:26.789Z,28.35
2023-04-08T16:25:54.128Z,27.45
2023-04-08T16:28:22.247Z,29.83
2023-04-08T16:30:49.475Z,29.60
2023-04-08T16:33:17.093Z,26.83
2023-04-08T16:35:44.501Z,25.73
2023-04-08T16:38:12.057Z,27.00
2023-04-08T16:40:39.361Z,25.17
2023-04-08T16:43:06.944Z,26.33
2023-04-08T16:45:34.227Z,30.45
2023-04-08T16:48:02.067Z,33.58
2023-04-08T16:50:29.436Z,28.35
2023-04-08T16:52:57.169Z,30.40
2023-04-08T16:55:24.697Z,26.75
2023-04-08T16:57:52.369Z,27.83
2023-04-08T17:00:21.203Z,26.95
2023-04-08T17:02:49.526Z,31.50
2023-04-08T17:05:17.185Z,27.45
2023-04-08T17:07:45.016Z,29.83
2023-04-08T17:10:12.274Z,27.90
2023-04-08T17:12:40.071Z,30.48
2023-04-08T17:15:08.154Z,27.90
2023-04-08T17:17:35.821Z,26.65
2023-04-08T17:20:03.229Z,28.90
2023-04-08T17:22:31.069Z,27.70
2023-04-08T17:24:58.870Z,25.73
2023-04-08T17:27:26.456Z,27.40
2023-04-08T17:29:57.791Z,27.48
2023-04-08T17:32:25.896Z,25.83
2023-04-08T17:34:53.859Z,25.88
2023-04-08T17:37:21.664Z,27.35
2023-04-08T17:39:48.993Z,23.70
2023-04-08T17:42:17.004Z,26.02
2023-04-08T17:44:44.894Z,26.98
2023-04-08T17:47:12.427Z,25.42
2023-04-08T17:49:39.776Z,29.63
2023-04-08T17:52:07.374Z,28.23
2023-04-08T17:54:34.783Z,35.20
2023-04-08T17:57:03.179Z,34.55
2023-04-08T17:59:30.870Z,40.50
2023-04-08T18:01:58.513Z,35.35
2023-04-08T18:04:26.032Z,37.50
2023-04-08T18:06:53.666Z,39.10
2023-04-08T18:09:21.092Z,38.08
2023-04-08T18:11:48.719Z,36.20
2023-04-08T18:14:16.671Z,38.45
2023-04-08T18:16:44.275Z,35.63
2023-04-08T18:19:13.314Z,39.38
2023-04-08T18:21:40.990Z,40.78
2023-04-08T18:24:09.306Z,38.70
2023-04-08T18:26:37.074Z,37.70
2023-04-08T18:29:04.331Z,37.00
2023-04-08T18:31:31.966Z,36.42
2023-04-08T18:33:59.181Z,34.05
2023-04-08T18:36:26.810Z,33.00
2023-04-08T18:38:54.093Z,33.08
2023-04-08T18:41:23.699Z,37.35
2023-04-08T18:43:51.869Z,34.40
2023-04-08T18:46:20.123Z,34.17
2023-04-08T18:48:49.375Z,34.22
2023-04-08T18:51:16.913Z,38.55
2023-04-08T18:53:44.385Z,36.45
2023-04-08T18:56:16.760Z,38.33
2023-04-08T18:58:47.097Z,35.95
2023-04-08T19:01:14.938Z,34.00
2023-04-08T19:03:45.988Z,36.15
2023-04-08T19:06:13.869Z,36.17
2023-04-08T19:08:41.600Z,33.88
2023-04-08T19:11:08.857Z,33.80
2023-04-08T19:13:36.432Z,36.92
2023-04-08T19:16:03.906Z,34.97
2023-04-08T19:18:31.605Z,36.17
2023-04-08T19:21:01.015Z,35.00
2023-04-08T19:23:28.531Z,33.92
2023-04-08T19:25:56.260Z,38.47
2023-04-08T19:28:23.871Z,37.15
2023-04-08T19:30:51.226Z,35.67
2023-04-08T19:33:19.632Z,36.42
2023-04-08T19:35:49.491Z,34.47
2023-04-08T19:38:17.147Z,42.17
2023-04-08T19:40:44.593Z,39.40
2023-04-08T19:43:12.202Z,45.17
2023-04-08T19:45:39.590Z,42.92
2023-04-08T19:48:07.751Z,48.53
2023-04-08T19:50:39.247Z,45.72
2023-04-08T19:53:06.851Z,37.58
2023-04-08T19:55:37.393Z,38.75
2023-04-08T19:58:05.491Z,41.92
2023-04-08T20:00:32.783Z,38.80
2023-04-08T20:03:00.673Z,41.25
2023-04-08T20:05:28.226Z,37.53
2023-04-08T20:07:55.897Z,39.00
2023-04-08T20:10:23.225Z,40.22
2023-04-08T20:12:52.697Z,41.30
2023-04-08T20:15:24.727Z,40.63
2023-04-08T20:17:53.737Z,42.72
2023-04-08T20:20:21.459Z,37.28
2023-04-08T20:22:49.079Z,40.58
2023-04-08T20:25:16.528Z,40.80
2023-04-08T20:27:44.109Z,42.55
2023-04-08T20:30:12.332Z,42.55
2023-04-08T20:32:39.861Z,44.38
2023-04-08T20:35:07.300Z,33.90
2023-04-08T20:37:34.827Z,35.38
2023-04-08T20:40:02.528Z,35.65
2023-04-08T20:42:30.132Z,36.92
2023-04-08T20:44:57.367Z,34.40
2023-04-08T20:47:25.867Z,38.28
2023-04-08T20:49:53.167Z,39.72
2023-04-08T20:52:20.759Z,33.10
2023-04-08T20:54:48.019Z,35.00
2023-04-08T20:57:15.583Z,35.47
2023-04-08T20:59:42.841Z,41.20
2023-04-08T21:02:10.804Z,44.45
2023-04-08T21:04:38.174Z,45.00
2023-04-08T21:07:05.786Z,48.00
2023-04-08T21:09:33.053Z,44.13
2023-04-08T21:12:01.522Z,44.22
2023-04-08T21:14:31.341Z,38.05
2023-04-08T21:16:58.967Z,33.13
2023-04-08T21:19:26.386Z,32.92
2023-04-08T21:21:53.915Z,40.80
2023-04-08T21:24:21.402Z,40.90
2023-04-08T21:26:48.934Z,35.90
2023-04-08T21:29:16.297Z,43.00
2023-04-08T21:31:43.929Z,43.97
2023-04-08T21:34:11.661Z,35.05
2023-04-08T21:36:39.278Z,35.28
2023-04-08T21:39:07.052Z,41.00
2023-04-08T21:41:34.683Z,57.50
2023-04-08T21:44:02.104Z,53.28
2023-04-08T21:46:29.724Z,63.30
2023-04-08T21:48:57.040Z,66.38
2023-04-08T21:51:24.626Z,63.00
2023-04-08T21:53:52.221Z,58.20
2023-04-08T21:56:20.500Z,50.78
2023-04-08T21:58:47.858Z,47.38
2023-04-08T22:01:15.449Z,71.20
2023-04-08T22:03:43.931Z,74.93
2023-04-08T22:06:19.121Z,87.60
2023-04-08T22:08:53.286Z,89.13
2023-04-08T22:11:20.981Z,87.00
2023-04-08T22:13:48.314Z,95.07
2023-04-08T22:16:15.932Z,78.40
2023-04-08T22:18:43.140Z,78.03
2023-04-08T22:21:10.728Z,82.13
2023-04-08T22:23:38.018Z,90.28
2023-04-08T22:26:05.584Z,83.43
2023-04-08T22:28:34.343Z,83.18
2023-04-08T22:31:01.956Z,80.88
2023-04-08T22:33:29.199Z,70.10
2023-04-08T22:35:59.629Z,70.95
2023-04-08T22:38:26.868Z,67.15
2023-04-08T22:40:54.668Z,61.55
2023-04-08T22:43:22.115Z,54.78
2023-04-08T22:45:49.921Z,65.32
2023-04-08T22:48:17.212Z,61.92
2023-04-08T22:50:44.792Z,73.03
2023-04-08T22:53:12.958Z,67.78
2023-04-08T22:55:40.667Z,61.97
2023-04-08T22:58:07.965Z,64.00
2023-04-08T23:00:35.820Z,68.30
2023-04-08T23:03:04.965Z,55.05
2023-04-08T23:05:32.699Z,57.92
2023-04-08T23:08:00.246Z,57.70
2023-04-08T23:10:27.792Z,60.85
2023-04-08T23:12:55.060Z,64.13
2023-04-08T23:15:22.591Z,71.07
2023-04-08T23:17:49.886Z,68.85
2023-04-08T23:20:17.527Z,71.18
2023-04-08T23:22:44.800Z,67.72
2023-04-08T23:25:12.476Z,74.25
2023-04-08T23:27:39.743Z,97.10
2023-04-08T23:30:08.234Z,91.68
2023-04-08T23:32:36.013Z,90.30
2023-04-08T23:35:03.907Z,82.53
2023-04-08T23:37:31.287Z,73.88
2023-04-08T23:39:58.815Z,65.25
2023-04-08T23:42:27.346Z,63.00
2023-04-08T23:44:55.439Z,50.60
2023-04-08T23:47:23.102Z,55.15
2023-04-08T23:49:50.998Z,45.78
2023-04-08T23:52:18.269Z,46.05
2023-04-08T23:54:51.089Z,56.35
2023-04-08T23:57:20.435Z,49.35
2023-04-08T23:59:48.185Z,51.60
